createdAt,value
2019-01-03T00:01:31.617Z,103174.98
2019-01-03T00:04:18.659Z,103180.35
2019-01-03T00:06:55.541Z,103183.00
2019-01-03T00:09:26.496Z,103176.48
2019-01-03T00:12:13.855Z,103172.94
2019-01-03T00:15:00.860Z,103174.75
2019-01-03T00:17:35.025Z,103172.52
2019-01-03T00:20:21.898Z,103170.94
2019-01-03T00:22:55.737Z,103170.84
2019-01-03T00:25:29.432Z,103175.22
2019-01-03T00:28:16.556Z,103171.30
2019-01-03T00:30:56.513Z,103174.19
2019-01-03T00:33:39.324Z,103178.06
2019-01-03T00:36:12.938Z,103180.56
2019-01-03T00:38:55.556Z,103174.36
2019-01-03T00:41:29.395Z,103181.55
2019-01-03T00:44:11.952Z,103172.75
2019-01-03T00:46:43.183Z,103179.70
2019-01-03T00:49:28.847Z,103173.45
2019-01-03T00:52:08.334Z,103179.59
2019-01-03T00:54:39.279Z,103177.80
2019-01-03T00:57:18.936Z,103173.52
2019-01-03T01:00:07.907Z,103172.50
2019-01-03T01:02:50.729Z,103177.60
2019-01-03T01:05:37.623Z,103172.08
2019-01-03T01:08:11.547Z,103176.68
2019-01-03T01:10:58.924Z,103176.14
2019-01-03T01:13:39.261Z,103178.57
2019-01-03T01:16:13.168Z,103175.01
2019-01-03T01:18:44.136Z,103177.22
2019-01-03T01:21:15.062Z,103183.42
2019-01-03T01:24:00.715Z,103186.73
2019-01-03T01:26:37.557Z,103197.61
2019-01-03T01:29:11.156Z,103192.84
2019-01-03T01:31:45.114Z,103200.45
2019-01-03T01:34:32.468Z,103199.13
2019-01-03T01:37:19.758Z,103204.42
2019-01-03T01:39:50.925Z,103206.00
2019-01-03T01:42:37.995Z,103206.31
2019-01-03T01:45:25.505Z,103211.68
2019-01-03T01:48:05.432Z,103220.75
2019-01-03T01:50:42.081Z,103211.43
2019-01-03T01:53:25.197Z,103214.64
2019-01-03T01:56:08.326Z,103225.71
2019-01-03T01:58:42.217Z,103173.67
2019-01-03T02:01:13.219Z,103224.00
2019-01-03T02:03:59.406Z,103231.50
2019-01-03T02:06:39.262Z,103237.98
2019-01-03T02:09:12.858Z,103237.57
2019-01-03T02:11:58.854Z,103245.41
2019-01-03T02:14:38.801Z,103242.42
2019-01-03T02:17:24.471Z,103231.90
2019-01-03T02:20:11.615Z,103227.77
2019-01-03T02:22:45.423Z,103229.13
2019-01-03T02:25:28.536Z,103235.59
2019-01-03T02:28:15.528Z,103227.88
2019-01-03T02:30:58.634Z,103229.44
2019-01-03T02:33:47.636Z,103221.59
2019-01-03T02:36:35.141Z,103228.19
2019-01-03T02:39:08.012Z,103223.94
2019-01-03T02:41:38.957Z,103219.33
2019-01-03T02:44:09.902Z,103212.70
2019-01-03T02:46:56.933Z,103216.08
2019-01-03T02:49:33.571Z,103214.85
2019-01-03T02:52:13.404Z,103213.19
2019-01-03T02:54:50.504Z,103209.64
2019-01-03T02:57:37.594Z,103213.94
2019-01-03T03:00:24.676Z,103204.72
2019-01-03T03:02:55.648Z,103202.78
2019-01-03T03:05:29.276Z,103198.68
2019-01-03T03:08:06.315Z,103192.13
2019-01-03T03:10:43.294Z,103189.84
2019-01-03T03:13:17.221Z,103182.02
2019-01-03T03:16:03.422Z,103162.09
2019-01-03T03:18:40.470Z,103165.18
2019-01-03T03:21:29.631Z,103165.64
2019-01-03T03:24:00.596Z,103154.87
2019-01-03T03:26:40.354Z,103151.44
2019-01-03T03:29:17.512Z,103149.31
2019-01-03T03:31:57.534Z,103148.48
2019-01-03T03:34:31.824Z,103143.95
2019-01-03T03:37:09.113Z,103142.53
2019-01-03T03:39:45.792Z,103150.31
2019-01-03T03:42:33.113Z,103135.66
2019-01-03T03:45:07.279Z,103144.28
2019-01-03T03:47:47.450Z,103143.94
2019-01-03T03:50:34.644Z,103138.30
2019-01-03T03:53:11.745Z,103141.24
2019-01-03T03:55:42.711Z,103150.05
2019-01-03T03:58:19.419Z,103150.45
2019-01-03T04:01:05.329Z,103149.59
2019-01-03T04:03:36.415Z,103152.73
2019-01-03T04:06:22.737Z,103150.36
2019-01-03T04:09:05.707Z,103157.38
2019-01-03T04:11:52.850Z,103147.34
2019-01-03T04:14:29.728Z,103135.55
2019-01-03T04:17:03.369Z,103143.63
2019-01-03T04:19:34.497Z,103144.11
2019-01-03T04:22:17.250Z,103141.38
2019-01-03T04:24:50.867Z,103143.23
2019-01-03T04:27:37.982Z,103147.02
2019-01-03T04:30:25.506Z,103143.30
2019-01-03T04:32:56.452Z,103146.90
2019-01-03T04:35:33.378Z,103146.48
2019-01-03T04:38:20.665Z,103142.91
2019-01-03T04:40:55.860Z,103139.30
2019-01-03T04:43:35.755Z,103140.38
2019-01-03T04:46:06.983Z,103142.72
2019-01-03T04:48:56.038Z,103139.79
2019-01-03T04:51:36.194Z,103136.77
2019-01-03T04:54:13.194Z,103147.39
2019-01-03T04:57:00.296Z,103132.92
2019-01-03T04:59:36.951Z,103134.63
2019-01-03T05:02:23.179Z,103126.52
2019-01-03T05:05:09.411Z,103137.86
2019-01-03T05:07:40.369Z,103132.08
2019-01-03T05:10:11.404Z,103133.83
2019-01-03T05:12:51.198Z,103134.84
2019-01-03T05:15:36.858Z,103134.69
2019-01-03T05:18:13.801Z,103140.17
2019-01-03T05:20:44.763Z,103138.56
2019-01-03T05:23:24.504Z,103138.91
2019-01-03T05:26:10.628Z,103136.59
2019-01-03T05:28:57.616Z,103140.12
2019-01-03T05:31:28.570Z,103144.81
2019-01-03T05:34:08.348Z,103137.00
2019-01-03T05:36:55.091Z,103131.95
2019-01-03T05:39:37.859Z,103130.91
2019-01-03T05:42:11.951Z,103127.56
2019-01-03T05:44:57.887Z,103130.28
2019-01-03T05:47:28.834Z,103118.18
2019-01-03T05:50:02.769Z,103118.50
2019-01-03T05:52:39.662Z,103126.72
2019-01-03T05:55:22.237Z,103129.70
2019-01-03T05:58:08.214Z,103127.62
2019-01-03T06:00:48.128Z,103130.63
2019-01-03T06:03:35.629Z,103127.80
2019-01-03T06:06:06.605Z,103135.45
2019-01-03T06:08:43.506Z,103137.59
2019-01-03T06:11:23.315Z,103145.41
2019-01-03T06:13:56.901Z,103146.47
2019-01-03T06:16:30.780Z,103143.92
2019-01-03T06:19:17.504Z,103143.94
2019-01-03T06:21:51.251Z,103150.58
2019-01-03T06:24:38.280Z,103142.72
2019-01-03T06:27:25.328Z,103145.34
2019-01-03T06:29:58.961Z,103146.95
2019-01-03T06:32:36.127Z,103149.47
2019-01-03T06:35:13.405Z,103145.61
2019-01-03T06:37:44.638Z,103147.33
2019-01-03T06:40:15.618Z,103142.44
2019-01-03T06:42:49.451Z,103136.66
2019-01-03T06:45:35.712Z,103144.66
2019-01-03T06:48:06.671Z,103145.86
2019-01-03T06:50:53.481Z,103141.64
2019-01-03T06:53:40.541Z,103152.66
2019-01-03T06:56:27.688Z,103148.03
2019-01-03T06:59:14.529Z,103158.61
2019-01-03T07:02:01.877Z,103158.02
2019-01-03T07:04:48.985Z,103163.26
2019-01-03T07:07:19.939Z,103165.37
2019-01-03T07:09:56.678Z,103168.13
2019-01-03T07:12:27.614Z,103168.78
2019-01-03T07:15:01.631Z,103168.83
2019-01-03T07:17:32.566Z,103171.73
2019-01-03T07:20:12.437Z,103171.92
2019-01-03T07:22:59.463Z,103166.77
2019-01-03T07:25:30.494Z,103155.28
2019-01-03T07:28:17.531Z,103150.95
2019-01-03T07:31:04.651Z,103156.23
2019-01-03T07:33:47.748Z,103160.16
2019-01-03T07:36:35.263Z,103161.53
2019-01-03T07:39:23.432Z,103174.07
2019-01-03T07:41:54.359Z,103173.01
2019-01-03T07:44:41.547Z,103172.38
2019-01-03T07:47:28.649Z,103170.39
2019-01-03T07:50:02.558Z,103177.28
2019-01-03T07:52:45.556Z,103170.50
2019-01-03T07:55:22.667Z,103170.72
2019-01-03T07:57:59.733Z,103170.59
2019-01-03T08:00:39.802Z,103166.16
2019-01-03T08:03:26.808Z,103170.64
2019-01-03T08:06:06.745Z,103174.97
2019-01-03T08:08:46.464Z,103176.08
2019-01-03T08:11:33.780Z,103179.05
2019-01-03T08:14:16.804Z,103181.97
2019-01-03T08:16:47.759Z,103189.78
2019-01-03T08:19:35.074Z,103184.22
2019-01-03T08:22:17.750Z,103183.48
2019-01-03T08:24:54.477Z,103188.82
2019-01-03T08:27:41.522Z,103182.98
2019-01-03T08:30:12.453Z,103191.98
2019-01-03T08:32:52.093Z,103195.02
2019-01-03T08:35:39.420Z,103201.91
2019-01-03T08:38:10.388Z,103192.87
2019-01-03T08:40:41.314Z,103197.13
2019-01-03T08:43:12.266Z,103192.03
2019-01-03T08:45:45.985Z,103196.37
2019-01-03T08:48:16.950Z,103194.88
2019-01-03T08:51:04.006Z,103192.39
2019-01-03T08:53:43.637Z,103192.66
2019-01-03T08:56:26.521Z,103191.94
2019-01-03T08:59:00.205Z,103194.34
2019-01-03T09:01:34.127Z,103200.21
2019-01-03T09:04:05.345Z,103201.64
2019-01-03T09:06:42.009Z,103204.61
2019-01-03T09:09:29.680Z,103204.95
2019-01-03T09:12:16.657Z,103210.50
2019-01-03T09:14:53.396Z,103206.59
2019-01-03T09:17:30.553Z,103207.05
2019-01-03T09:20:01.524Z,103208.48
2019-01-03T09:22:48.452Z,103205.92
2019-01-03T09:25:28.361Z,103210.38
2019-01-03T09:27:59.289Z,103210.70
2019-01-03T09:30:32.909Z,103210.24
2019-01-03T09:33:18.855Z,103204.14
2019-01-03T09:35:49.871Z,103200.95
2019-01-03T09:38:20.796Z,103208.20
2019-01-03T09:40:51.762Z,103206.42
2019-01-03T09:43:25.807Z,103212.45
2019-01-03T09:45:55.120Z,103217.72
2019-01-03T09:48:24.477Z,103212.73
2019-01-03T09:50:53.795Z,103204.78
2019-01-03T09:53:23.162Z,103204.65
2019-01-03T09:55:52.751Z,103206.03
2019-01-03T09:58:22.045Z,103207.79
2019-01-03T10:00:51.370Z,103210.73
2019-01-03T10:03:20.699Z,103211.88
2019-01-03T10:05:49.980Z,103216.18
2019-01-03T10:08:19.833Z,103220.07
2019-01-03T10:10:49.270Z,103221.09
2019-01-03T10:13:18.593Z,103219.48
2019-01-03T10:15:47.917Z,103212.44
2019-01-03T10:18:17.242Z,103214.41
2019-01-03T10:20:46.571Z,103221.26
2019-01-03T10:23:15.964Z,103219.97
2019-01-03T10:25:45.292Z,103215.77
2019-01-03T10:28:14.593Z,103208.55
2019-01-03T10:30:43.904Z,103198.55
2019-01-03T10:33:13.209Z,103197.97
2019-01-03T10:35:42.629Z,103200.04
2019-01-03T10:38:11.920Z,103189.91
2019-01-03T10:40:41.280Z,103195.95
2019-01-03T10:43:10.608Z,103185.51
2019-01-03T10:45:40.870Z,103189.14
2019-01-03T10:48:10.231Z,103187.01
2019-01-03T10:50:39.770Z,103191.22
2019-01-03T10:53:10.407Z,103186.23
2019-01-03T10:55:40.293Z,103177.27
2019-01-03T10:58:09.616Z,103177.16
2019-01-03T11:00:39.343Z,103172.09
2019-01-03T11:03:08.669Z,103163.73
2019-01-03T11:05:37.994Z,103163.64
2019-01-03T11:08:07.630Z,103158.21
2019-01-03T11:10:37.006Z,103163.36
2019-01-03T11:13:06.313Z,103163.73
2019-01-03T11:15:35.616Z,103153.66
2019-01-03T11:18:04.975Z,103159.27
2019-01-03T11:20:34.303Z,103156.76
2019-01-03T11:23:03.613Z,103159.53
2019-01-03T11:25:33.202Z,103159.81
2019-01-03T11:28:02.511Z,103161.27
2019-01-03T11:30:31.904Z,103155.03
2019-01-03T11:33:01.245Z,103149.70
2019-01-03T11:35:30.579Z,103140.78
2019-01-03T11:37:59.865Z,103141.53
2019-01-03T11:40:29.182Z,103124.88
2019-01-03T11:42:58.476Z,103122.96
2019-01-03T11:45:28.148Z,103122.03
2019-01-03T11:47:57.529Z,103120.13
2019-01-03T11:50:29.003Z,103116.86
2019-01-03T11:52:58.321Z,103116.17
2019-01-03T11:55:27.665Z,103107.30
2019-01-03T11:57:56.957Z,103107.83
2019-01-03T12:00:26.284Z,103112.64
2019-01-03T12:02:55.572Z,103114.02
2019-01-03T12:05:24.911Z,103106.36
2019-01-03T12:07:54.200Z,103109.57
2019-01-03T12:10:23.534Z,103109.72
2019-01-03T12:12:52.827Z,103107.27
2019-01-03T12:15:22.144Z,103105.23
2019-01-03T12:17:51.467Z,103106.78
2019-01-03T12:20:20.785Z,103103.66
2019-01-03T12:22:50.119Z,103101.67
2019-01-03T12:25:19.411Z,103113.12
2019-01-03T12:27:48.838Z,103101.53
2019-01-03T12:30:18.159Z,103108.76
2019-01-03T12:32:47.546Z,103106.77
2019-01-03T12:35:17.470Z,103094.52
2019-01-03T12:37:46.934Z,103091.25
2019-01-03T12:40:16.346Z,103096.38
2019-01-03T12:42:45.662Z,103096.38
2019-01-03T12:45:14.987Z,103117.90
2019-01-03T12:47:44.319Z,103116.03
2019-01-03T12:50:13.637Z,103116.03
2019-01-03T12:52:42.971Z,103124.77
2019-01-03T12:55:12.260Z,103122.57
2019-01-03T12:57:41.577Z,103122.57
2019-01-03T13:00:12.992Z,103114.52
2019-01-03T13:02:42.389Z,103117.28
2019-01-03T13:05:11.671Z,103106.94
2019-01-03T13:07:41.006Z,103101.72
2019-01-03T13:10:10.725Z,103098.89
2019-01-03T13:12:40.131Z,103086.09
2019-01-03T13:15:09.761Z,103069.16
2019-01-03T13:17:39.086Z,103078.27
2019-01-03T13:20:08.992Z,103076.80
2019-01-03T13:22:38.292Z,103088.31
2019-01-03T13:25:09.621Z,103096.80
2019-01-03T13:27:38.891Z,103090.40
2019-01-03T13:30:10.153Z,103094.51
2019-01-03T13:32:40.975Z,103095.66
2019-01-03T13:35:12.378Z,103103.10
2019-01-03T13:37:41.668Z,103110.71
2019-01-03T13:40:10.991Z,103108.42
2019-01-03T13:42:40.309Z,103104.24
2019-01-03T13:45:12.931Z,103113.20
2019-01-03T13:47:42.386Z,103119.23
2019-01-03T13:50:11.895Z,103121.73
2019-01-03T13:52:41.272Z,103123.58
2019-01-03T13:55:11.687Z,103119.95
2019-01-03T13:57:40.993Z,103116.73
2019-01-03T14:00:10.946Z,103110.36
2019-01-03T14:02:40.239Z,103103.32
2019-01-03T14:05:09.634Z,103095.78
2019-01-03T14:07:38.926Z,103097.50
2019-01-03T14:10:08.586Z,103093.63
2019-01-03T14:12:37.884Z,103091.58
2019-01-03T14:15:08.174Z,103083.73
2019-01-03T14:17:37.489Z,103094.50
2019-01-03T14:20:10.215Z,103102.57
2019-01-03T14:22:40.119Z,103106.39
2019-01-03T14:25:09.595Z,103104.91
2019-01-03T14:27:38.902Z,103107.74
2019-01-03T14:30:09.757Z,103112.55
2019-01-03T14:32:39.065Z,103106.42
2019-01-03T14:35:08.375Z,103113.36
2019-01-03T14:37:37.766Z,103112.30
2019-01-03T14:40:08.883Z,103110.17
2019-01-03T14:42:38.175Z,103112.70
2019-01-03T14:45:07.930Z,103115.33
2019-01-03T14:47:37.213Z,103117.92
2019-01-03T14:50:09.494Z,103119.67
2019-01-03T14:52:38.877Z,103119.27
2019-01-03T14:55:09.953Z,103118.36
2019-01-03T14:57:39.268Z,103121.86
2019-01-03T15:00:12.585Z,103129.77
2019-01-03T15:02:41.904Z,103126.30
2019-01-03T15:05:14.032Z,103124.64
2019-01-03T15:07:42.271Z,103117.92
2019-01-03T15:10:11.567Z,103111.86
2019-01-03T15:12:40.883Z,103111.45
2019-01-03T15:15:10.198Z,103109.70
2019-01-03T15:17:39.495Z,103111.02
2019-01-03T15:20:11.253Z,103109.39
2019-01-03T15:22:40.563Z,103104.42
2019-01-03T15:25:09.907Z,103107.89
2019-01-03T15:27:42.793Z,103110.80
2019-01-03T15:30:12.168Z,103115.98
2019-01-03T15:32:41.448Z,103120.13
2019-01-03T15:35:10.766Z,103114.36
2019-01-03T15:37:40.051Z,103120.66
2019-01-03T15:40:09.453Z,103121.00
2019-01-03T15:42:38.745Z,103121.50
2019-01-03T15:45:08.981Z,103122.03
2019-01-03T15:47:38.374Z,103127.37
2019-01-03T15:50:09.134Z,103121.97
2019-01-03T15:52:38.535Z,103127.69
2019-01-03T15:55:10.399Z,103129.58
2019-01-03T15:57:40.441Z,103120.72
2019-01-03T16:00:11.581Z,103127.22
2019-01-03T16:02:44.014Z,103131.73
2019-01-03T16:05:14.196Z,103135.23
2019-01-03T16:07:46.633Z,103129.99
2019-01-03T16:10:23.219Z,103130.16
2019-01-03T16:12:53.420Z,103134.23
2019-01-03T16:15:23.424Z,103141.80
2019-01-03T16:17:52.916Z,103143.55
2019-01-03T16:20:22.445Z,103142.05
2019-01-03T16:22:53.835Z,103139.98
2019-01-03T16:25:23.480Z,103139.38
2019-01-03T16:27:52.772Z,103137.09
2019-01-03T16:30:22.174Z,103098.09
2019-01-03T16:32:53.567Z,103139.75
2019-01-03T16:35:22.899Z,103140.52
2019-01-03T16:37:52.259Z,103141.66
2019-01-03T16:40:21.583Z,103141.13
2019-01-03T16:42:51.062Z,103131.63
2019-01-03T16:45:20.462Z,103132.14
2019-01-03T16:47:49.745Z,103136.66
2019-01-03T16:50:19.539Z,103133.44
2019-01-03T16:52:48.817Z,103138.41
2019-01-03T16:55:18.138Z,103139.59
2019-01-03T16:57:47.478Z,103135.80
2019-01-03T17:00:17.109Z,103140.52
2019-01-03T17:02:46.440Z,103136.20
2019-01-03T17:05:15.727Z,103132.77
2019-01-03T17:07:45.051Z,103134.33
2019-01-03T17:10:16.869Z,103138.18
2019-01-03T17:12:46.587Z,103137.28
2019-01-03T17:15:15.953Z,103136.20
2019-01-03T17:17:45.256Z,103136.41
2019-01-03T17:20:14.546Z,103133.14
2019-01-03T17:22:43.962Z,103137.11
2019-01-03T17:25:13.481Z,103143.58
2019-01-03T17:27:43.109Z,103137.89
2019-01-03T17:30:12.538Z,103142.70
2019-01-03T17:32:41.924Z,103148.36
2019-01-03T17:35:11.784Z,103153.55
2019-01-03T17:37:41.101Z,103156.50
2019-01-03T17:40:12.043Z,103154.19
2019-01-03T17:42:41.636Z,103149.47
2019-01-03T17:45:11.964Z,103147.05
2019-01-03T17:47:41.349Z,103147.34
2019-01-03T17:50:12.330Z,103152.59
2019-01-03T17:52:41.713Z,103146.12
2019-01-03T17:55:11.092Z,103156.55
2019-01-03T17:57:40.406Z,103163.78
2019-01-03T18:00:13.013Z,103164.66
2019-01-03T18:02:42.737Z,103159.15
2019-01-03T18:05:12.118Z,103160.34
2019-01-03T18:07:41.405Z,103159.38
2019-01-03T18:10:13.263Z,103159.50
2019-01-03T18:12:42.551Z,103148.63
2019-01-03T18:15:12.012Z,103151.97
2019-01-03T18:17:41.395Z,103149.06
2019-01-03T18:20:13.747Z,103142.85
2019-01-03T18:22:43.398Z,103144.19
2019-01-03T18:25:12.862Z,103143.63
2019-01-03T18:27:42.217Z,103142.47
2019-01-03T18:30:13.173Z,103139.61
2019-01-03T18:32:42.473Z,103139.38
2019-01-03T18:35:11.847Z,103145.59
2019-01-03T18:37:41.238Z,103149.17
2019-01-03T18:40:13.488Z,103153.34
2019-01-03T18:42:42.784Z,103160.38
2019-01-03T18:45:14.932Z,103159.30
2019-01-03T18:47:44.427Z,103156.23
2019-01-03T18:50:18.875Z,103156.88
2019-01-03T18:52:44.808Z,103155.09
2019-01-03T18:55:15.662Z,103143.75
2019-01-03T18:57:44.993Z,103150.72
2019-01-03T19:00:14.406Z,103149.55
2019-01-03T19:02:43.963Z,103142.17
2019-01-03T19:05:13.557Z,103146.67
2019-01-03T19:07:42.850Z,103149.20
2019-01-03T19:10:12.245Z,103151.51
2019-01-03T19:12:41.583Z,103148.01
2019-01-03T19:15:11.008Z,103139.99
2019-01-03T19:17:40.378Z,103140.88
2019-01-03T19:20:10.561Z,103149.34
2019-01-03T19:22:39.877Z,103152.61
2019-01-03T19:25:12.303Z,103154.86
2019-01-03T19:27:41.713Z,103156.26
2019-01-03T19:30:12.751Z,103159.30
2019-01-03T19:32:42.154Z,103163.98
2019-01-03T19:35:12.650Z,103169.27
2019-01-03T19:37:42.026Z,103165.95
2019-01-03T19:40:13.597Z,103171.25
2019-01-03T19:42:44.370Z,103170.31
2019-01-03T19:45:14.014Z,103179.19
2019-01-03T19:47:43.365Z,103180.67
2019-01-03T19:50:15.935Z,103178.48
2019-01-03T19:52:45.359Z,103173.75
2019-01-03T19:55:14.691Z,103184.05
2019-01-03T19:57:43.988Z,103192.89
2019-01-03T20:00:15.464Z,103196.02
2019-01-03T20:02:44.799Z,103188.43
2019-01-03T20:05:14.246Z,103184.90
2019-01-03T20:07:43.597Z,103184.31
2019-01-03T20:10:14.036Z,103179.59
2019-01-03T20:12:43.641Z,103182.77
2019-01-03T20:15:14.923Z,103185.04
2019-01-03T20:17:44.600Z,103178.59
2019-01-03T20:20:13.924Z,103175.00
2019-01-03T20:22:43.294Z,103180.64
2019-01-03T20:25:12.968Z,103174.23
2019-01-03T20:27:42.329Z,103180.81
2019-01-03T20:30:12.509Z,103183.56
2019-01-03T20:32:41.801Z,103181.34
2019-01-03T20:35:13.327Z,103182.25
2019-01-03T20:37:42.636Z,103170.55
2019-01-03T20:40:12.037Z,103172.63
2019-01-03T20:42:41.418Z,103169.73
2019-01-03T20:45:13.173Z,103166.13
2019-01-03T20:47:42.506Z,103166.14
2019-01-03T20:50:13.647Z,103172.80
2019-01-03T20:52:43.015Z,103172.70
2019-01-03T20:55:12.682Z,103168.07
2019-01-03T20:57:41.976Z,103168.95
2019-01-03T21:00:14.082Z,103165.59
2019-01-03T21:02:45.180Z,103169.66
2019-01-03T21:05:14.593Z,103168.94
2019-01-03T21:07:43.915Z,103169.86
2019-01-03T21:10:13.822Z,103168.09
2019-01-03T21:12:43.420Z,103158.87
2019-01-03T21:15:15.684Z,103166.31
2019-01-03T21:17:45.027Z,103162.92
2019-01-03T21:20:16.340Z,103165.59
2019-01-03T21:22:45.809Z,103165.52
2019-01-03T21:25:16.067Z,103166.50
2019-01-03T21:27:45.446Z,103160.79
2019-01-03T21:30:17.411Z,103164.86
2019-01-03T21:32:46.921Z,103165.66
2019-01-03T21:35:16.436Z,103167.67
2019-01-03T21:37:45.870Z,103172.67
2019-01-03T21:40:15.378Z,103176.06
2019-01-03T21:42:44.772Z,103179.23
2019-01-03T21:45:14.226Z,103175.51
2019-01-03T21:47:43.557Z,103167.26
2019-01-03T21:50:13.508Z,103165.19
2019-01-03T21:52:42.806Z,103170.91
2019-01-03T21:55:12.135Z,103170.52
2019-01-03T21:57:41.455Z,103172.91
2019-01-03T22:00:12.301Z,103177.45
2019-01-03T22:02:41.723Z,103186.75
2019-01-03T22:05:11.021Z,103190.77
2019-01-03T22:07:40.343Z,103190.30
2019-01-03T22:10:10.440Z,103187.73
2019-01-03T22:12:42.207Z,103186.42
2019-01-03T22:15:11.508Z,103192.20
2019-01-03T22:17:40.832Z,103193.38
2019-01-03T22:20:10.517Z,103196.44
2019-01-03T22:22:39.817Z,103204.69
2019-01-03T22:25:09.236Z,103201.77
2019-01-03T22:27:38.525Z,103199.41
2019-01-03T22:30:10.283Z,103200.43
2019-01-03T22:32:39.979Z,103196.45
2019-01-03T22:35:09.379Z,103202.52
2019-01-03T22:37:38.685Z,103202.44
2019-01-03T22:40:08.844Z,103203.24
2019-01-03T22:42:38.235Z,103204.36
2019-01-03T22:45:08.899Z,103197.38
2019-01-03T22:47:38.372Z,103202.30
2019-01-03T22:50:10.239Z,103208.25
2019-01-03T22:52:39.591Z,103204.36
2019-01-03T22:55:08.988Z,103209.36
2019-01-03T22:57:38.329Z,103207.77
2019-01-03T23:00:28.768Z,103211.30
2019-01-03T23:02:58.085Z,103212.71
2019-01-03T23:05:27.372Z,103204.83
2019-01-03T23:07:57.168Z,103199.12
2019-01-03T23:10:26.484Z,103198.61
2019-01-03T23:12:56.288Z,103208.19
2019-01-03T23:15:26.071Z,103204.33
2019-01-03T23:17:55.368Z,103211.23
2019-01-03T23:20:24.691Z,103207.25
2019-01-03T23:22:54.000Z,103169.58
2019-01-03T23:25:23.439Z,103215.75
2019-01-03T23:27:52.775Z,103214.81
2019-01-03T23:30:22.097Z,103213.36
2019-01-03T23:32:51.482Z,103204.48
2019-01-03T23:35:20.968Z,103203.61
2019-01-03T23:37:50.491Z,103200.60
2019-01-03T23:40:20.014Z,103208.58
2019-01-03T23:42:49.357Z,103202.87
2019-01-03T23:45:20.842Z,103198.61
2019-01-03T23:47:51.914Z,103190.06
2019-01-03T23:50:24.733Z,103189.27
2019-01-03T23:52:54.385Z,103181.32
2019-01-03T23:55:24.987Z,103185.64
2019-01-03T23:57:54.319Z,103185.70
